createdAt,value
2018-10-19T00:00:05.870Z,12.91
2018-10-19T00:02:33.314Z,12.91
2018-10-19T00:05:00.812Z,12.94
2018-10-19T00:07:28.202Z,13.02
2018-10-19T00:09:55.634Z,13.02
2018-10-19T00:12:23.087Z,13.10
2018-10-19T00:14:50.541Z,13.21
2018-10-19T00:17:17.975Z,13.15
2018-10-19T00:19:45.423Z,13.13
2018-10-19T00:22:12.869Z,13.07
2018-10-19T00:24:40.319Z,13.05
2018-10-19T00:27:07.776Z,12.96
2018-10-19T00:29:35.207Z,12.99
2018-10-19T00:32:02.630Z,13.01
2018-10-19T00:34:30.095Z,13.03
2018-10-19T00:36:57.538Z,13.05
2018-10-19T00:39:25.019Z,13.09
2018-10-19T00:41:52.450Z,13.17
2018-10-19T00:44:19.901Z,13.17
2018-10-19T00:46:47.358Z,13.14
2018-10-19T00:49:14.965Z,13.03
2018-10-19T00:51:42.445Z,13.02
2018-10-19T00:54:10.020Z,12.97
2018-10-19T00:56:37.504Z,12.95
2018-10-19T00:59:05.011Z,12.97
2018-10-19T01:01:32.434Z,12.89
2018-10-19T01:03:59.910Z,13.03
2018-10-19T01:06:27.346Z,13.07
2018-10-19T01:08:54.834Z,13.03
2018-10-19T01:11:22.257Z,12.98
2018-10-19T01:13:49.705Z,13.05
2018-10-19T01:16:17.143Z,13.13
2018-10-19T01:18:44.581Z,13.15
2018-10-19T01:21:12.070Z,13.05
2018-10-19T01:23:39.465Z,13.13
2018-10-19T01:26:07.118Z,13.07
2018-10-19T01:28:34.530Z,13.03
2018-10-19T01:31:02.025Z,13.00
2018-10-19T01:33:29.466Z,12.94
2018-10-19T01:35:57.027Z,13.00
2018-10-19T01:38:24.499Z,12.94
2018-10-19T01:40:51.959Z,12.94
2018-10-19T01:43:19.445Z,12.95
2018-10-19T01:45:52.273Z,12.91
2018-10-19T01:48:19.778Z,12.88
2018-10-19T01:50:47.218Z,12.86
2018-10-19T01:53:14.731Z,12.83
2018-10-19T01:55:42.151Z,12.84
2018-10-19T01:58:09.586Z,12.91
2018-10-19T02:00:37.034Z,12.97
2018-10-19T02:03:04.513Z,12.99
2018-10-19T02:05:31.963Z,12.95
2018-10-19T02:07:59.501Z,12.91
2018-10-19T02:10:27.035Z,12.95
2018-10-19T02:12:54.490Z,13.00
2018-10-19T02:15:22.006Z,12.96
2018-10-19T02:17:49.452Z,12.95
2018-10-19T02:20:16.930Z,12.99
2018-10-19T02:22:44.371Z,13.19
2018-10-19T02:25:11.813Z,13.21
2018-10-19T02:27:39.276Z,13.19
2018-10-19T02:30:06.716Z,13.21
2018-10-19T02:32:34.199Z,13.26
2018-10-19T02:35:01.737Z,13.22
2018-10-19T02:37:29.434Z,13.22
2018-10-19T02:39:56.857Z,13.28
2018-10-19T02:42:24.293Z,13.27
2018-10-19T02:44:51.766Z,13.41
2018-10-19T02:47:19.218Z,13.24
2018-10-19T02:49:46.671Z,13.22
2018-10-19T02:52:14.102Z,13.21
2018-10-19T02:54:41.554Z,13.32
2018-10-19T02:57:09.044Z,13.20
2018-10-19T02:59:36.446Z,13.28
2018-10-19T03:02:03.887Z,13.47
2018-10-19T03:04:31.325Z,13.27
2018-10-19T03:06:58.768Z,13.36
2018-10-19T03:09:26.228Z,13.31
2018-10-19T03:11:53.657Z,13.38
2018-10-19T03:14:21.198Z,13.38
2018-10-19T03:16:48.652Z,13.43
2018-10-19T03:19:16.098Z,13.43
2018-10-19T03:21:43.811Z,13.40
2018-10-19T03:24:11.274Z,13.34
2018-10-19T03:26:38.782Z,13.29
2018-10-19T03:29:06.324Z,13.37
2018-10-19T03:31:33.710Z,13.28
2018-10-19T03:34:01.151Z,13.34
2018-10-19T03:36:28.594Z,13.31
2018-10-19T03:38:56.125Z,13.34
2018-10-19T03:41:23.513Z,13.31
2018-10-19T03:43:50.968Z,13.42
2018-10-19T03:46:18.413Z,13.29
2018-10-19T03:48:45.989Z,13.37
2018-10-19T03:51:13.633Z,13.33
2018-10-19T03:53:41.038Z,13.30
2018-10-19T03:56:08.478Z,13.37
2018-10-19T03:58:35.918Z,13.23
2018-10-19T04:01:03.368Z,13.18
2018-10-19T04:03:30.864Z,13.25
2018-10-19T04:05:58.277Z,13.17
2018-10-19T04:08:25.743Z,13.14
2018-10-19T04:10:53.185Z,13.30
2018-10-19T04:13:20.618Z,13.28
2018-10-19T04:15:48.053Z,13.23
2018-10-19T04:18:15.517Z,13.13
2018-10-19T04:20:43.085Z,13.23
2018-10-19T04:23:10.663Z,13.20
2018-10-19T04:25:39.118Z,13.24
2018-10-19T04:28:06.570Z,13.20
2018-10-19T04:30:34.920Z,13.20
2018-10-19T04:33:02.933Z,13.27
2018-10-19T04:35:30.420Z,13.12
2018-10-19T04:37:57.819Z,13.09
2018-10-19T04:40:25.327Z,13.09
2018-10-19T04:42:52.704Z,13.10
2018-10-19T04:45:20.389Z,13.07
2018-10-19T04:47:47.879Z,13.12
2018-10-19T04:50:15.299Z,12.95
2018-10-19T04:52:42.797Z,13.01
2018-10-19T04:55:10.954Z,12.95
2018-10-19T04:57:38.398Z,12.90
2018-10-19T05:00:05.858Z,12.76
2018-10-19T05:02:33.355Z,12.67
2018-10-19T05:05:00.760Z,12.67
2018-10-19T05:07:28.194Z,12.59
2018-10-19T05:09:55.633Z,12.63
2018-10-19T05:12:23.127Z,12.55
2018-10-19T05:14:50.554Z,12.56
2018-10-19T05:17:18.005Z,12.57
2018-10-19T05:19:45.453Z,12.54
2018-10-19T05:22:12.898Z,12.62
2018-10-19T05:24:40.376Z,12.64
2018-10-19T05:27:07.784Z,12.65
2018-10-19T05:29:35.226Z,12.62
2018-10-19T05:32:02.866Z,12.62
2018-10-19T05:34:30.240Z,12.63
2018-10-19T05:36:57.684Z,12.58
2018-10-19T05:39:25.130Z,12.61
2018-10-19T05:41:52.570Z,12.74
2018-10-19T05:44:20.018Z,12.83
2018-10-19T05:46:47.463Z,12.86
2018-10-19T05:49:15.670Z,12.90
2018-10-19T05:51:43.167Z,12.77
2018-10-19T05:54:10.632Z,12.83
2018-10-19T05:56:38.074Z,12.92
2018-10-19T05:59:05.540Z,12.90
2018-10-19T06:01:32.970Z,13.01
2018-10-19T06:04:00.406Z,13.01
2018-10-19T06:06:27.901Z,13.03
2018-10-19T06:08:55.378Z,13.11
2018-10-19T06:11:22.847Z,13.01
2018-10-19T06:13:50.307Z,12.98
2018-10-19T06:16:17.746Z,12.94
2018-10-19T06:18:45.186Z,12.79
2018-10-19T06:21:12.712Z,12.92
2018-10-19T06:23:40.086Z,13.10
2018-10-19T06:26:07.612Z,13.18
2018-10-19T06:28:35.001Z,13.08
2018-10-19T06:31:02.598Z,12.96
2018-10-19T06:33:30.411Z,13.05
2018-10-19T06:35:57.846Z,13.02
2018-10-19T06:38:25.298Z,12.91
2018-10-19T06:40:52.860Z,12.89
2018-10-19T06:43:20.294Z,12.87
2018-10-19T06:45:47.742Z,12.90
2018-10-19T06:48:15.285Z,12.89
2018-10-19T06:50:42.746Z,12.97
2018-10-19T06:53:10.245Z,12.91
2018-10-19T06:55:37.644Z,12.88
2018-10-19T06:58:05.249Z,12.76
2018-10-19T07:00:32.820Z,12.77
2018-10-19T07:03:00.278Z,12.81
2018-10-19T07:05:27.738Z,12.87
2018-10-19T07:07:55.212Z,12.95
2018-10-19T07:10:22.626Z,12.97
2018-10-19T07:12:50.086Z,12.86
2018-10-19T07:15:17.514Z,12.87
2018-10-19T07:17:44.957Z,12.83
2018-10-19T07:20:12.448Z,12.63
2018-10-19T07:22:40.136Z,12.62
2018-10-19T07:25:07.821Z,12.49
2018-10-19T07:27:35.342Z,12.51
2018-10-19T07:30:02.786Z,12.50
2018-10-19T07:32:30.486Z,12.49
2018-10-19T07:34:57.966Z,12.51
2018-10-19T07:37:25.474Z,12.55
2018-10-19T07:39:52.926Z,12.47
2018-10-19T07:42:20.438Z,12.46
2018-10-19T07:44:47.990Z,12.53
2018-10-19T07:47:15.657Z,12.72
2018-10-19T07:49:42.971Z,12.72
2018-10-19T07:52:10.418Z,12.62
2018-10-19T07:54:37.980Z,12.70
2018-10-19T07:57:05.321Z,12.87
2018-10-19T07:59:33.053Z,12.96
2018-10-19T08:02:00.524Z,12.48
2018-10-19T08:04:27.946Z,12.27
2018-10-19T08:06:55.806Z,12.29
2018-10-19T08:09:23.250Z,12.40
2018-10-19T08:11:50.697Z,12.16
2018-10-19T08:14:18.141Z,12.09
2018-10-19T08:16:45.622Z,12.15
2018-10-19T08:19:13.101Z,12.32
2018-10-19T08:21:40.550Z,12.27
2018-10-19T08:24:08.007Z,12.23
2018-10-19T08:26:35.453Z,12.32
2018-10-19T08:29:02.907Z,12.24
2018-10-19T08:31:30.347Z,12.37
2018-10-19T08:33:57.798Z,12.34
2018-10-19T08:36:25.251Z,12.46
2018-10-19T08:38:52.698Z,12.53
2018-10-19T08:41:20.352Z,12.40
2018-10-19T08:43:47.679Z,12.59
2018-10-19T08:46:20.554Z,12.79
2018-10-19T08:48:48.034Z,12.89
2018-10-19T08:51:15.486Z,12.62
2018-10-19T08:53:42.920Z,12.39
2018-10-19T08:56:10.373Z,12.26
2018-10-19T08:58:37.809Z,12.22
2018-10-19T09:01:05.260Z,12.01
2018-10-19T09:03:32.769Z,11.91
2018-10-19T09:06:00.251Z,11.85
2018-10-19T09:08:27.676Z,11.92
2018-10-19T09:10:55.195Z,11.73
2018-10-19T09:13:22.574Z,11.81
2018-10-19T09:15:50.022Z,11.87
2018-10-19T09:18:17.492Z,11.84
2018-10-19T09:20:45.148Z,12.03
2018-10-19T09:23:12.631Z,11.85
2018-10-19T09:25:40.050Z,11.97
2018-10-19T09:28:07.500Z,12.01
2018-10-19T09:30:34.946Z,11.77
2018-10-19T09:33:02.462Z,11.83
2018-10-19T09:35:29.972Z,11.86
2018-10-19T09:37:57.369Z,11.80
2018-10-19T09:40:24.802Z,11.95
2018-10-19T09:42:52.318Z,11.99
2018-10-19T09:45:19.734Z,11.97
2018-10-19T09:47:47.186Z,11.93
2018-10-19T09:50:14.618Z,11.85
2018-10-19T09:52:42.082Z,11.92
2018-10-19T09:55:09.841Z,11.92
2018-10-19T09:57:37.242Z,11.90
2018-10-19T10:00:04.701Z,11.97
2018-10-19T10:02:32.154Z,12.00
2018-10-19T10:04:59.652Z,12.05
2018-10-19T10:07:27.075Z,12.04
2018-10-19T10:09:54.510Z,12.10
2018-10-19T10:12:21.949Z,12.09
2018-10-19T10:14:49.460Z,12.25
2018-10-19T10:17:16.855Z,11.93
2018-10-19T10:19:44.327Z,11.97
2018-10-19T10:22:11.842Z,12.04
2018-10-19T10:24:39.237Z,12.19
2018-10-19T10:27:06.650Z,12.16
2018-10-19T10:29:34.098Z,11.95
2018-10-19T10:32:01.561Z,11.97
2018-10-19T10:34:29.112Z,12.03
2018-10-19T10:36:56.611Z,12.18
2018-10-19T10:39:24.151Z,12.05
2018-10-19T10:41:51.510Z,12.06
2018-10-19T10:44:19.013Z,12.14
2018-10-19T10:46:46.467Z,12.31
2018-10-19T10:49:13.973Z,12.32
2018-10-19T10:51:41.341Z,12.14
2018-10-19T10:54:08.812Z,12.09
2018-10-19T10:56:36.424Z,11.97
2018-10-19T10:59:03.882Z,12.03
2018-10-19T11:01:31.330Z,12.19
2018-10-19T11:03:58.811Z,12.25
2018-10-19T11:06:26.246Z,12.24
2018-10-19T11:08:53.704Z,12.19
2018-10-19T11:11:21.202Z,12.31
2018-10-19T11:13:48.645Z,12.32
2018-10-19T11:16:16.101Z,12.48
2018-10-19T11:18:43.546Z,12.41
2018-10-19T11:21:11.008Z,12.44
2018-10-19T11:23:38.482Z,12.22
2018-10-19T11:26:06.223Z,12.22
2018-10-19T11:28:33.667Z,12.24
2018-10-19T11:31:01.756Z,12.28
2018-10-19T11:33:29.190Z,12.43
2018-10-19T11:35:56.657Z,12.35
2018-10-19T11:38:24.408Z,12.48
2018-10-19T11:40:51.844Z,12.45
2018-10-19T11:43:19.291Z,12.31
2018-10-19T11:45:46.743Z,12.37
2018-10-19T11:48:14.175Z,12.20
2018-10-19T11:50:41.641Z,12.42
2018-10-19T11:53:09.225Z,12.55
2018-10-19T11:55:36.672Z,12.39
2018-10-19T11:58:04.257Z,12.67
2018-10-19T12:00:31.645Z,12.81
2018-10-19T12:02:59.083Z,12.55
2018-10-19T12:05:26.538Z,12.40
2018-10-19T12:07:54.030Z,12.34
2018-10-19T12:10:22.518Z,12.70
2018-10-19T12:12:49.954Z,12.59
2018-10-19T12:15:17.875Z,12.52
2018-10-19T12:17:45.910Z,12.51
2018-10-19T12:20:16.338Z,12.49
2018-10-19T12:22:43.777Z,12.30
2018-10-19T12:25:12.261Z,12.37
2018-10-19T12:27:40.022Z,12.56
2018-10-19T12:30:07.490Z,12.46
2018-10-19T12:32:34.956Z,12.55
2018-10-19T12:35:02.421Z,12.35
2018-10-19T12:37:29.863Z,12.45
2018-10-19T12:39:57.301Z,12.36
2018-10-19T12:42:24.801Z,12.33
2018-10-19T12:44:52.345Z,12.32
2018-10-19T12:47:19.745Z,12.34
2018-10-19T12:49:47.144Z,12.51
2018-10-19T12:52:14.598Z,12.46
2018-10-19T12:54:42.033Z,12.36
2018-10-19T12:57:09.711Z,12.47
2018-10-19T12:59:37.091Z,12.67
2018-10-19T13:02:04.633Z,12.44
2018-10-19T13:04:32.727Z,12.40
2018-10-19T13:07:00.234Z,12.42
2018-10-19T13:09:27.619Z,12.43
2018-10-19T13:11:55.099Z,12.48
2018-10-19T13:14:22.552Z,12.37
2018-10-19T13:16:49.994Z,12.34
2018-10-19T13:19:17.448Z,12.49
2018-10-19T13:21:45.035Z,12.61
2018-10-19T13:24:12.499Z,12.70
2018-10-19T13:26:39.908Z,12.63
2018-10-19T13:29:07.535Z,12.83
2018-10-19T13:31:34.972Z,12.51
2018-10-19T13:34:02.509Z,12.43
2018-10-19T13:36:29.941Z,12.50
2018-10-19T13:38:57.469Z,12.75
2018-10-19T13:41:24.969Z,12.84
2018-10-19T13:43:52.449Z,12.73
2018-10-19T13:46:19.881Z,12.69
2018-10-19T13:48:47.330Z,12.80
2018-10-19T13:51:14.967Z,12.72
2018-10-19T13:53:42.351Z,12.87
2018-10-19T13:56:09.790Z,13.04
2018-10-19T13:58:37.231Z,12.67
2018-10-19T14:01:04.709Z,12.54
2018-10-19T14:03:32.209Z,12.57
2018-10-19T14:05:59.598Z,12.79
2018-10-19T14:08:27.033Z,12.87
2018-10-19T14:10:54.483Z,12.83
2018-10-19T14:13:21.909Z,12.68
2018-10-19T14:15:49.352Z,12.66
2018-10-19T14:18:16.789Z,12.57
2018-10-19T14:20:44.227Z,12.91
2018-10-19T14:23:11.742Z,12.87
2018-10-19T14:25:39.151Z,12.61
2018-10-19T14:28:06.615Z,12.83
2018-10-19T14:30:34.050Z,12.78
2018-10-19T14:33:01.569Z,12.78
2018-10-19T14:35:28.939Z,12.73
2018-10-19T14:37:56.387Z,12.72
2018-10-19T14:40:23.834Z,12.87
2018-10-19T14:42:51.274Z,12.71
2018-10-19T14:45:18.885Z,12.84
2018-10-19T14:47:47.153Z,12.91
2018-10-19T14:50:15.854Z,12.94
2018-10-19T14:52:43.330Z,12.87
2018-10-19T14:55:12.887Z,13.00
2018-10-19T14:57:40.326Z,13.05
2018-10-19T15:00:08.018Z,13.02
2018-10-19T15:02:35.642Z,12.88
2018-10-19T15:05:03.362Z,12.81
2018-10-19T15:07:30.763Z,12.79
2018-10-19T15:09:58.416Z,12.94
2018-10-19T15:12:25.765Z,13.20
2018-10-19T15:14:53.202Z,13.21
2018-10-19T15:17:20.637Z,13.09
2018-10-19T15:19:48.986Z,13.23
2018-10-19T15:22:16.422Z,13.48
2018-10-19T15:24:44.054Z,13.74
2018-10-19T15:27:11.592Z,13.84
2018-10-19T15:29:39.078Z,13.86
2018-10-19T15:32:06.434Z,13.79
2018-10-19T15:34:33.941Z,13.96
2018-10-19T15:37:01.390Z,13.77
2018-10-19T15:39:28.823Z,13.54
2018-10-19T15:41:56.343Z,13.54
2018-10-19T15:44:23.745Z,13.79
2018-10-19T15:46:51.214Z,13.83
2018-10-19T15:49:18.986Z,13.71
2018-10-19T15:51:46.422Z,13.55
2018-10-19T15:54:13.913Z,14.00
2018-10-19T15:56:41.326Z,13.84
2018-10-19T15:59:08.753Z,13.98
2018-10-19T16:01:36.198Z,14.03
2018-10-19T16:04:03.810Z,14.12
2018-10-19T16:06:31.250Z,14.26
2018-10-19T16:08:58.720Z,14.09
2018-10-19T16:11:26.178Z,14.21
2018-10-19T16:13:53.618Z,13.90
2018-10-19T16:16:21.097Z,13.43
2018-10-19T16:18:48.592Z,13.54
2018-10-19T16:21:16.075Z,13.62
2018-10-19T16:23:43.474Z,13.25
2018-10-19T16:26:10.921Z,13.49
2018-10-19T16:28:38.386Z,13.76
2018-10-19T16:31:05.832Z,13.66
2018-10-19T16:33:33.274Z,13.35
2018-10-19T16:36:00.974Z,13.43
2018-10-19T16:38:28.395Z,13.64
2018-10-19T16:40:55.873Z,13.48
2018-10-19T16:43:23.310Z,13.58
2018-10-19T16:45:50.769Z,13.20
2018-10-19T16:48:18.218Z,13.10
2018-10-19T16:50:45.669Z,13.34
2018-10-19T16:53:13.706Z,13.12
2018-10-19T16:55:41.814Z,13.05
2018-10-19T16:58:09.309Z,12.92
2018-10-19T17:00:36.686Z,13.12
2018-10-19T17:03:04.275Z,13.08
2018-10-19T17:05:31.683Z,13.14
2018-10-19T17:07:59.118Z,13.08
2018-10-19T17:10:26.554Z,12.96
2018-10-19T17:12:54.207Z,13.11
2018-10-19T17:15:21.498Z,13.32
2018-10-19T17:17:48.974Z,13.51
2018-10-19T17:20:16.407Z,13.17
2018-10-19T17:22:43.853Z,13.17
2018-10-19T17:25:11.929Z,13.39
2018-10-19T17:27:39.718Z,13.30
2018-10-19T17:30:07.387Z,13.33
2018-10-19T17:32:34.735Z,13.43
2018-10-19T17:35:02.205Z,13.34
2018-10-19T17:37:29.643Z,13.42
2018-10-19T17:39:57.024Z,13.44
2018-10-19T17:42:24.467Z,13.21
2018-10-19T17:44:51.902Z,13.13
2018-10-19T17:47:19.346Z,13.19
2018-10-19T17:49:46.799Z,13.23
2018-10-19T17:52:14.342Z,12.97
2018-10-19T17:54:41.770Z,13.05
2018-10-19T17:57:09.361Z,13.28
2018-10-19T17:59:36.771Z,13.27
2018-10-19T18:02:04.214Z,13.29
2018-10-19T18:04:31.666Z,13.25
2018-10-19T18:06:59.090Z,13.29
2018-10-19T18:09:26.538Z,13.23
2018-10-19T18:11:54.142Z,13.26
2018-10-19T18:14:21.583Z,13.13
2018-10-19T18:16:49.069Z,12.95
2018-10-19T18:19:16.502Z,13.00
2018-10-19T18:21:44.176Z,13.05
2018-10-19T18:24:11.502Z,13.00
2018-10-19T18:26:38.954Z,13.04
2018-10-19T18:29:06.559Z,12.91
2018-10-19T18:31:33.999Z,13.22
2018-10-19T18:34:01.442Z,13.23
2018-10-19T18:36:28.879Z,13.12
2018-10-19T18:38:56.470Z,13.07
2018-10-19T18:41:23.976Z,13.09
2018-10-19T18:43:51.371Z,13.02
2018-10-19T18:46:18.806Z,13.04
2018-10-19T18:48:46.335Z,12.79
2018-10-19T18:51:13.782Z,13.04
2018-10-19T18:53:41.276Z,13.07
2018-10-19T18:56:08.861Z,13.09
2018-10-19T18:58:36.258Z,12.74
2018-10-19T19:01:03.735Z,12.46
2018-10-19T19:03:31.173Z,12.33
2018-10-19T19:05:58.665Z,12.59
2018-10-19T19:08:26.218Z,12.66
2018-10-19T19:10:53.745Z,12.67
2018-10-19T19:13:26.545Z,12.87
2018-10-19T19:15:54.027Z,12.84
2018-10-19T19:18:21.477Z,12.85
2018-10-19T19:20:48.918Z,12.85
2018-10-19T19:23:16.427Z,12.98
2018-10-19T19:25:49.230Z,12.87
2018-10-19T19:28:16.676Z,12.73
2018-10-19T19:30:44.131Z,12.68
2018-10-19T19:33:17.030Z,12.76
2018-10-19T19:35:44.466Z,12.95
2018-10-19T19:38:11.955Z,12.94
2018-10-19T19:40:44.858Z,12.80
2018-10-19T19:43:12.309Z,12.66
2018-10-19T19:45:39.918Z,12.46
2018-10-19T19:48:12.706Z,12.15
2018-10-19T19:50:40.217Z,12.02
2018-10-19T19:53:07.676Z,12.22
2018-10-19T19:55:35.236Z,12.48
2018-10-19T19:58:02.708Z,12.61
2018-10-19T20:00:30.130Z,12.64
2018-10-19T20:02:57.725Z,12.43
2018-10-19T20:05:25.166Z,12.00
2018-10-19T20:07:52.655Z,12.09
2018-10-19T20:10:20.137Z,12.39
2018-10-19T20:12:47.601Z,12.59
2018-10-19T20:15:15.038Z,12.49
2018-10-19T20:17:42.590Z,12.52
2018-10-19T20:20:10.711Z,12.53
2018-10-19T20:22:38.363Z,12.51
2018-10-19T20:25:05.797Z,12.59
2018-10-19T20:27:33.238Z,12.62
2018-10-19T20:30:00.674Z,12.65
2018-10-19T20:32:28.295Z,12.59
2018-10-19T20:34:55.925Z,12.58
2018-10-19T20:37:23.324Z,12.53
2018-10-19T20:39:50.819Z,12.52
2018-10-19T20:42:18.450Z,12.43
2018-10-19T20:44:45.907Z,12.56
2018-10-19T20:47:13.609Z,12.56
2018-10-19T20:49:41.016Z,12.53
2018-10-19T20:52:08.471Z,12.53
2018-10-19T20:54:36.148Z,12.36
2018-10-19T20:57:03.553Z,12.21
2018-10-19T20:59:31.079Z,11.98
2018-10-19T21:01:58.554Z,11.92
2018-10-19T21:04:25.951Z,11.96
2018-10-19T21:06:53.550Z,12.01
2018-10-19T21:09:21.177Z,11.99
2018-10-19T21:11:48.607Z,11.86
2018-10-19T21:14:16.094Z,11.85
2018-10-19T21:16:43.477Z,11.82
2018-10-19T21:19:11.144Z,11.85
2018-10-19T21:21:38.606Z,12.02
2018-10-19T21:24:06.061Z,12.14
2018-10-19T21:26:33.502Z,12.13
2018-10-19T21:29:01.067Z,12.09
2018-10-19T21:31:28.479Z,12.16
2018-10-19T21:33:55.938Z,12.21
2018-10-19T21:36:23.458Z,12.09
2018-10-19T21:38:50.830Z,12.04
2018-10-19T21:41:18.262Z,12.19
2018-10-19T21:43:45.852Z,12.23
2018-10-19T21:46:13.387Z,12.04
2018-10-19T21:48:41.091Z,11.92
2018-10-19T21:51:08.542Z,12.09
2018-10-19T21:53:36.047Z,11.86
2018-10-19T21:56:03.514Z,11.84
2018-10-19T21:58:30.927Z,11.75
2018-10-19T22:00:58.362Z,11.66
2018-10-19T22:03:25.810Z,11.64
2018-10-19T22:05:53.250Z,11.68
2018-10-19T22:08:20.729Z,11.98
2018-10-19T22:10:48.170Z,11.98
2018-10-19T22:13:15.655Z,11.99
2018-10-19T22:15:43.081Z,11.88
2018-10-19T22:18:10.538Z,11.69
2018-10-19T22:20:37.976Z,11.74
2018-10-19T22:23:05.492Z,11.83
2018-10-19T22:25:32.889Z,11.83
2018-10-19T22:28:00.365Z,12.01
2018-10-19T22:30:28.016Z,12.06
2018-10-19T22:32:55.417Z,11.94
2018-10-19T22:35:22.862Z,11.82
2018-10-19T22:37:50.297Z,11.69
2018-10-19T22:40:17.953Z,11.70
2018-10-19T22:42:45.430Z,11.69
2018-10-19T22:45:12.879Z,11.59
2018-10-19T22:47:40.326Z,11.43
2018-10-19T22:50:07.770Z,11.58
2018-10-19T22:52:35.205Z,11.46
2018-10-19T22:55:02.677Z,11.29
2018-10-19T22:57:30.277Z,11.52
2018-10-19T22:59:57.925Z,11.71
2018-10-19T23:02:25.426Z,11.63
2018-10-19T23:04:52.883Z,11.60
2018-10-19T23:07:20.330Z,11.58
2018-10-19T23:09:48.019Z,11.72
2018-10-19T23:12:15.397Z,11.60
2018-10-19T23:14:42.833Z,11.48
2018-10-19T23:17:10.319Z,11.38
2018-10-19T23:19:37.742Z,11.32
2018-10-19T23:22:05.180Z,11.48
2018-10-19T23:24:32.713Z,11.54
2018-10-19T23:27:00.166Z,11.43
2018-10-19T23:29:27.601Z,11.39
2018-10-19T23:31:55.040Z,11.54
2018-10-19T23:34:22.523Z,11.59
2018-10-19T23:36:49.962Z,11.57
2018-10-19T23:39:17.496Z,11.63
2018-10-19T23:41:45.002Z,11.63
2018-10-19T23:44:12.426Z,11.25
2018-10-19T23:46:39.866Z,11.23
2018-10-19T23:49:07.831Z,11.22
2018-10-19T23:51:35.268Z,11.09
2018-10-19T23:54:02.706Z,11.20
2018-10-19T23:56:30.280Z,11.24
2018-10-19T23:58:57.865Z,10.83
